Time;durP1;ratioP1;P1;durP2;ratioP2;P2;SDS_P1;SDS_P2;PMS_P1;PMS_P2;Temp;Humidity;BMP_temperature;BMP_pressure;BME280_temperature;BME280_humidity;BME280_pressure;Samples;Min_cycle;Max_cycle;Signal;HPM_P1;HPM_P2
2023/07/22 00:00:05;;;;;;;6.18;4.60;;;;;;;;;;5035270;28;20044;-75
2023/07/22 00:02:31;;;;;;;5.88;4.35;;;;;;;;;;5042911;28;20144;-74
2023/07/22 00:04:56;;;;;;;8.60;5.63;;;;;;;;;;5044877;28;20098;-75
2023/07/22 00:07:21;;;;;;;3.58;3.28;;;;;;;;;;5039335;28;20470;-75
2023/07/22 00:09:49;;;;;;;4.53;3.05;;;;;;;;;;5028672;28;20106;-75
2023/07/22 00:12:15;;;;;;;4.93;4.07;;;;;;;;;;5032794;28;20056;-75
2023/07/22 00:14:41;;;;;;;3.30;2.50;;;;;;;;;;5023048;28;20075;-75
2023/07/22 00:17:07;;;;;;;4.88;3.65;;;;;;;;;;5033697;28;20041;-76
2023/07/22 00:19:33;;;;;;;5.13;3.95;;;;;;;;;;5033124;28;20033;-76
2023/07/22 00:21:59;;;;;;;7.75;5.63;;;;;;;;;;5021185;28;20465;-75
2023/07/22 00:24:24;;;;;;;7.13;4.95;;;;;;;;;;5023699;28;20029;-76
2023/07/22 00:26:50;;;;;;;6.28;5.65;;;;;;;;;;5014746;28;20100;-76
2023/07/22 00:29:16;;;;;;;4.82;3.63;;;;;;;;;;5024985;28;20584;-76
2023/07/22 00:31:41;;;;;;;5.10;4.38;;;;;;;;;;5025989;28;20036;-75
2023/07/22 00:34:07;;;;;;;4.53;2.92;;;;;;;;;;5039111;28;20529;-75
2023/07/22 00:36:32;;;;;;;3.08;2.67;;;;;;;;;;5020867;28;20375;-75
2023/07/22 00:38:57;;;;;;;4.78;3.40;;;;;;;;;;5035994;28;20041;-75
2023/07/22 00:41:23;;;;;;;3.15;2.60;;;;;;;;;;5043204;28;20456;-77
2023/07/22 00:43:48;;;;;;;3.63;2.47;;;;;;;;;;5030686;28;20126;-76
2023/07/22 00:46:13;;;;;;;7.60;4.97;;;;;;;;;;5041774;28;20045;-76
2023/07/22 00:48:39;;;;;;;8.13;5.75;;;;;;;;;;5034178;28;20036;-76
2023/07/22 00:51:05;;;;;;;4.68;3.22;;;;;;;;;;5043640;28;20041;-76
2023/07/22 00:53:30;;;;;;;3.83;3.53;;;;;;;;;;5023730;28;20038;-76
2023/07/22 00:55:56;;;;;;;7.80;5.88;;;;;;;;;;5032783;28;20472;-77
2023/07/22 00:58:21;;;;;;;7.05;5.93;;;;;;;;;;5045254;28;20634;-77
2023/07/22 01:00:48;;;;;;;5.03;3.92;;;;;;;;;;5031753;28;20068;-76
2023/07/22 01:03:13;;;;;;;6.97;5.07;;;;;;;;;;5013630;28;20048;-75
2023/07/22 01:05:39;;;;;;;7.63;5.65;;;;;;;;;;5032446;28;20029;-76
2023/07/22 01:08:05;;;;;;;5.97;4.18;;;;;;;;;;5031292;28;20068;-77
2023/07/22 01:10:31;;;;;;;3.38;3.08;;;;;;;;;;5037178;28;20042;-76
2023/07/22 01:12:56;;;;;;;4.25;3.65;;;;;;;;;;5027102;28;20037;-77
2023/07/22 01:15:23;;;;;;;7.30;5.00;;;;;;;;;;5035542;28;20768;-76
2023/07/22 01:17:50;;;;;;;7.50;4.57;;;;;;;;;;5016091;28;20040;-76
2023/07/22 01:20:16;;;;;;;2.15;1.92;;;;;;;;;;5041141;28;20041;-75
2023/07/22 01:22:49;;;;;;;3.10;2.50;;;;;;;;;;5049543;28;20390;-75
2023/07/22 01:25:15;;;;;;;4.75;3.53;;;;;;;;;;5029152;28;20552;-75
2023/07/22 01:27:41;;;;;;;2.72;2.17;;;;;;;;;;5017550;28;20081;-75
2023/07/22 01:30:09;;;;;;;2.65;2.45;;;;;;;;;;5019261;28;20036;-75
2023/07/22 01:32:34;;;;;;;5.03;3.55;;;;;;;;;;5031897;28;20037;-75
2023/07/22 01:35:00;;;;;;;5.78;3.53;;;;;;;;;;5036484;28;20043;-75
2023/07/22 01:37:25;;;;;;;2.72;2.33;;;;;;;;;;5003475;28;20030;-75
2023/07/22 01:39:51;;;;;;;5.43;3.30;;;;;;;;;;5035130;28;20136;-76
2023/07/22 01:42:17;;;;;;;6.72;5.38;;;;;;;;;;5032103;28;20033;-75
2023/07/22 01:44:42;;;;;;;3.30;2.38;;;;;;;;;;5039759;28;20112;-75
2023/07/22 01:47:08;;;;;;;4.07;2.63;;;;;;;;;;5034333;28;20118;-75
2023/07/22 01:49:34;;;;;;;3.22;2.63;;;;;;;;;;5043789;28;20029;-76
2023/07/22 01:52:00;;;;;;;6.07;4.00;;;;;;;;;;5033365;28;20098;-77
2023/07/22 01:54:25;;;;;;;3.65;2.90;;;;;;;;;;5023462;28;20041;-77
2023/07/22 01:56:51;;;;;;;4.18;3.33;;;;;;;;;;5035603;28;20580;-76
2023/07/22 01:59:16;;;;;;;3.08;2.45;;;;;;;;;;5022187;28;20117;-75
2023/07/22 02:01:41;;;;;;;4.00;2.53;;;;;;;;;;5036807;28;20099;-75
2023/07/22 02:04:07;;;;;;;2.90;2.65;;;;;;;;;;5035820;28;20029;-75
2023/07/22 02:06:32;;;;;;;3.50;3.20;;;;;;;;;;5028082;28;20095;-76
2023/07/22 02:08:58;;;;;;;3.63;2.72;;;;;;;;;;5037331;28;20068;-75
2023/07/22 02:11:23;;;;;;;4.53;3.00;;;;;;;;;;5023755;28;20074;-76
2023/07/22 02:13:48;;;;;;;4.80;3.90;;;;;;;;;;5036412;28;20628;-76
2023/07/22 02:16:14;;;;;;;4.68;3.10;;;;;;;;;;5038984;28;20102;-76
2023/07/22 02:18:39;;;;;;;5.80;3.63;;;;;;;;;;5044806;28;20044;-76
2023/07/22 02:21:05;;;;;;;2.97;2.47;;;;;;;;;;5007452;28;20577;-76
2023/07/22 02:23:30;;;;;;;3.63;3.10;;;;;;;;;;5018619;28;20532;-75
2023/07/22 02:25:55;;;;;;;3.40;2.70;;;;;;;;;;5016747;28;20037;-75
2023/07/22 02:28:22;;;;;;;6.28;3.67;;;;;;;;;;5034886;28;20033;-75
2023/07/22 02:30:52;;;;;;;5.78;4.25;;;;;;;;;;5019052;28;20041;-74
2023/07/22 02:33:19;;;;;;;6.43;3.92;;;;;;;;;;5022011;28;20760;-74
2023/07/22 02:35:44;;;;;;;3.67;3.20;;;;;;;;;;5033620;28;20048;-74
2023/07/22 02:38:10;;;;;;;3.60;2.90;;;;;;;;;;5033672;28;20040;-75
2023/07/22 02:40:35;;;;;;;3.72;2.70;;;;;;;;;;5037545;28;20135;-75
2023/07/22 02:43:01;;;;;;;5.32;3.10;;;;;;;;;;5044394;28;20033;-76
2023/07/22 02:45:26;;;;;;;4.30;3.08;;;;;;;;;;5031934;28;20060;-75
2023/07/22 02:47:52;;;;;;;3.20;2.60;;;;;;;;;;5008568;28;20086;-75
2023/07/22 02:50:18;;;;;;;8.60;4.70;;;;;;;;;;5042972;28;20484;-75
2023/07/22 02:52:43;;;;;;;6.72;4.32;;;;;;;;;;5030393;28;20548;-75
2023/07/22 02:55:11;;;;;;;4.85;3.45;;;;;;;;;;5023550;28;20091;-75
2023/07/22 02:57:37;;;;;;;7.60;4.78;;;;;;;;;;5024577;28;20033;-76
2023/07/22 03:00:13;;;;;;;7.20;3.67;;;;;;;;;;5035208;28;20033;-76
2023/07/22 03:02:41;;;;;;;4.47;2.92;;;;;;;;;;5014106;28;20042;-75
2023/07/22 03:05:08;;;;;;;6.15;4.30;;;;;;;;;;5018745;28;20028;-76
2023/07/22 03:07:37;;;;;;;7.22;3.88;;;;;;;;;;5043897;28;20033;-75
2023/07/22 03:10:04;;;;;;;6.38;3.72;;;;;;;;;;5037217;28;20529;-77
2023/07/22 03:12:30;;;;;;;7.50;5.03;;;;;;;;;;5034240;28;20124;-75
2023/07/22 03:14:55;;;;;;;4.80;3.10;;;;;;;;;;5008949;28;20124;-75
2023/07/22 03:17:21;;;;;;;3.22;2.63;;;;;;;;;;5034066;28;20124;-76
2023/07/22 03:19:46;;;;;;;5.68;3.88;;;;;;;;;;5034064;28;20429;-76
2023/07/22 03:22:18;;;;;;;9.02;4.82;;;;;;;;;;5034699;28;20032;-75
2023/07/22 03:24:44;;;;;;;3.67;2.95;;;;;;;;;;5043165;28;20033;-75
2023/07/22 03:27:10;;;;;;;3.72;2.95;;;;;;;;;;5037005;28;20034;-76
2023/07/22 03:29:35;;;;;;;4.43;3.47;;;;;;;;;;4999046;28;20046;-77
2023/07/22 03:32:00;;;;;;;5.68;3.85;;;;;;;;;;5027541;28;20140;-76
2023/07/22 03:34:31;;;;;;;7.93;4.50;;;;;;;;;;5006317;28;20485;-76
2023/07/22 03:36:57;;;;;;;6.47;4.10;;;;;;;;;;5020963;28;20029;-76
2023/07/22 03:39:22;;;;;;;5.65;3.58;;;;;;;;;;5016502;28;20145;-75
2023/07/22 03:41:47;;;;;;;4.45;3.40;;;;;;;;;;5008392;28;20069;-76
2023/07/22 03:44:13;;;;;;;5.32;3.53;;;;;;;;;;5030316;28;20045;-76
2023/07/22 03:46:38;;;;;;;5.22;3.75;;;;;;;;;;5010345;28;20120;-77
2023/07/22 03:49:04;;;;;;;4.22;2.95;;;;;;;;;;5034410;28;20037;-75
2023/07/22 03:51:29;;;;;;;9.65;5.22;;;;;;;;;;5021785;28;20132;-75
2023/07/22 03:53:55;;;;;;;7.72;4.25;;;;;;;;;;5040203;28;20037;-76
2023/07/22 03:56:21;;;;;;;6.05;3.35;;;;;;;;;;5032783;28;20033;-76
2023/07/22 03:58:46;;;;;;;3.75;3.33;;;;;;;;;;5041409;28;20144;-76
2023/07/22 04:01:12;;;;;;;4.43;3.33;;;;;;;;;;5033898;28;20566;-76
2023/07/22 04:03:38;;;;;;;8.35;4.90;;;;;;;;;;5035814;28;20111;-76
2023/07/22 04:06:03;;;;;;;8.77;5.15;;;;;;;;;;5033964;28;20124;-75
2023/07/22 04:08:29;;;;;;;5.68;3.70;;;;;;;;;;5047748;28;20036;-77
2023/07/22 04:10:55;;;;;;;6.80;4.50;;;;;;;;;;5028397;28;20583;-76
2023/07/22 04:13:23;;;;;;;7.57;4.60;;;;;;;;;;5049330;28;20049;-77
2023/07/22 04:15:49;;;;;;;3.88;2.83;;;;;;;;;;5046097;28;20783;-76
2023/07/22 04:18:18;;;;;;;3.47;2.88;;;;;;;;;;5046753;28;20041;-76
2023/07/22 04:20:44;;;;;;;4.25;3.13;;;;;;;;;;5019184;28;20026;-76
2023/07/22 04:23:10;;;;;;;5.80;3.90;;;;;;;;;;5021941;28;20033;-75
2023/07/22 04:25:39;;;;;;;3.63;2.97;;;;;;;;;;5022828;28;20504;-78
2023/07/22 04:28:05;;;;;;;5.13;3.50;;;;;;;;;;5043045;28;20124;-76
2023/07/22 04:30:30;;;;;;;7.82;5.10;;;;;;;;;;5043053;28;20662;-76
2023/07/22 04:32:56;;;;;;;7.80;4.30;;;;;;;;;;5039725;28;20458;-75
2023/07/22 04:35:21;;;;;;;7.78;5.20;;;;;;;;;;5038895;28;20029;-76
2023/07/22 04:37:47;;;;;;;9.77;5.25;;;;;;;;;;5014209;28;20056;-76
2023/07/22 04:40:16;;;;;;;9.32;5.57;;;;;;;;;;5045499;28;20028;-77
2023/07/22 04:42:42;;;;;;;6.72;3.97;;;;;;;;;;5022900;28;20119;-76
2023/07/22 04:45:12;;;;;;;7.13;4.40;;;;;;;;;;5045693;28;20151;-77
2023/07/22 04:47:38;;;;;;;6.78;4.15;;;;;;;;;;5044523;28;20025;-76
2023/07/22 04:50:09;;;;;;;10.88;5.68;;;;;;;;;;5011291;28;20044;-76
2023/07/22 04:52:34;;;;;;;6.00;4.43;;;;;;;;;;5034397;28;20494;-76
2023/07/22 04:55:00;;;;;;;10.50;5.97;;;;;;;;;;5022636;28;20114;-75
2023/07/22 04:57:25;;;;;;;6.55;4.75;;;;;;;;;;5032264;28;20033;-76
2023/07/22 04:59:50;;;;;;;5.90;4.20;;;;;;;;;;5032311;28;20106;-76
2023/07/22 05:02:16;;;;;;;8.13;4.57;;;;;;;;;;5041484;28;20052;-76
2023/07/22 05:04:41;;;;;;;10.13;5.30;;;;;;;;;;5030137;28;20118;-78
2023/07/22 05:07:07;;;;;;;4.00;3.40;;;;;;;;;;5041137;28;20144;-76
2023/07/22 05:09:33;;;;;;;6.05;4.60;;;;;;;;;;5045880;28;20052;-77
2023/07/22 05:11:58;;;;;;;5.55;3.70;;;;;;;;;;5043735;28;20044;-77
2023/07/22 05:14:24;;;;;;;7.03;4.97;;;;;;;;;;5042426;28;20033;-77
2023/07/22 05:16:49;;;;;;;13.23;6.03;;;;;;;;;;5019366;28;20038;-76
2023/07/22 05:19:14;;;;;;;5.00;3.80;;;;;;;;;;5026833;28;20175;-77
2023/07/22 05:21:41;;;;;;;6.70;4.97;;;;;;;;;;5053487;28;20852;-76
2023/07/22 05:24:06;;;;;;;10.00;5.93;;;;;;;;;;5040036;28;20045;-76
2023/07/22 05:26:32;;;;;;;10.45;6.13;;;;;;;;;;5047901;28;20028;-76
2023/07/22 05:28:57;;;;;;;6.75;4.30;;;;;;;;;;5033790;28;20397;-77
2023/07/22 05:31:23;;;;;;;5.35;3.40;;;;;;;;;;5036101;28;20040;-76
2023/07/22 05:33:48;;;;;;;8.20;5.43;;;;;;;;;;5025593;28;20025;-75
2023/07/22 05:36:13;;;;;;;8.05;4.78;;;;;;;;;;5033617;28;20044;-76
2023/07/22 05:38:39;;;;;;;8.85;5.75;;;;;;;;;;5023592;28;20029;-76
2023/07/22 05:41:04;;;;;;;7.20;4.63;;;;;;;;;;5027769;28;20121;-76
2023/07/22 05:43:30;;;;;;;6.20;4.15;;;;;;;;;;5036272;28;20100;-76
2023/07/22 05:45:55;;;;;;;8.57;4.47;;;;;;;;;;5049225;28;20489;-76
2023/07/22 05:48:21;;;;;;;3.28;2.80;;;;;;;;;;5014980;28;20573;-77
2023/07/22 05:50:47;;;;;;;9.93;5.00;;;;;;;;;;5038312;28;20048;-77
2023/07/22 05:53:13;;;;;;;9.07;5.28;;;;;;;;;;5025859;28;20529;-77
2023/07/22 05:55:38;;;;;;;4.35;3.35;;;;;;;;;;5036470;28;20037;-77
2023/07/22 05:58:08;;;;;;;7.57;4.60;;;;;;;;;;5026434;28;20120;-78
2023/07/22 06:00:34;;;;;;;10.38;5.53;;;;;;;;;;4997927;28;20056;-77
2023/07/22 06:02:59;;;;;;;3.22;2.60;;;;;;;;;;5024121;28;20032;-77
2023/07/22 06:05:25;;;;;;;8.70;5.55;;;;;;;;;;5038147;28;20033;-78
2023/07/22 06:07:50;;;;;;;8.57;4.82;;;;;;;;;;5023680;28;20525;-77
2023/07/22 06:10:16;;;;;;;7.18;4.32;;;;;;;;;;5025655;28;20048;-76
2023/07/22 06:12:41;;;;;;;4.97;3.55;;;;;;;;;;5039330;28;20037;-77
2023/07/22 06:15:07;;;;;;;8.25;4.40;;;;;;;;;;5024849;28;20045;-76
2023/07/22 06:17:33;;;;;;;8.00;4.15;;;;;;;;;;5007927;28;20052;-76
2023/07/22 06:19:58;;;;;;;5.03;3.70;;;;;;;;;;5038093;28;20029;-76
2023/07/22 06:22:24;;;;;;;6.93;4.53;;;;;;;;;;5034781;28;20094;-75
2023/07/22 06:24:49;;;;;;;8.35;4.57;;;;;;;;;;5039352;28;20566;-76
2023/07/22 06:27:14;;;;;;;7.93;4.50;;;;;;;;;;5042411;28;20036;-76
2023/07/22 06:29:40;;;;;;;6.07;4.10;;;;;;;;;;5026615;28;20636;-76
2023/07/22 06:32:06;;;;;;;7.97;4.60;;;;;;;;;;5008036;28;20040;-76
2023/07/22 06:34:32;;;;;;;7.07;4.85;;;;;;;;;;5033804;28;20036;-76
2023/07/22 06:36:57;;;;;;;6.93;5.10;;;;;;;;;;5039413;28;20127;-76
2023/07/22 06:39:22;;;;;;;5.15;3.30;;;;;;;;;;5026646;28;20037;-77
2023/07/22 06:41:48;;;;;;;6.65;4.82;;;;;;;;;;5030675;28;20025;-75
2023/07/22 06:44:13;;;;;;;6.40;4.05;;;;;;;;;;4997322;28;20049;-77
2023/07/22 06:46:38;;;;;;;6.43;4.63;;;;;;;;;;5041095;28;20043;-78
2023/07/22 06:49:04;;;;;;;6.22;4.40;;;;;;;;;;5042903;28;20534;-75
2023/07/22 06:51:29;;;;;;;7.00;4.03;;;;;;;;;;5044715;28;20044;-77
2023/07/22 06:53:55;;;;;;;6.07;4.38;;;;;;;;;;5043561;28;20194;-70
2023/07/22 06:56:20;;;;;;;7.75;4.22;;;;;;;;;;5024470;28;20021;-72
2023/07/22 06:58:46;;;;;;;6.57;4.40;;;;;;;;;;5023236;28;20025;-71
2023/07/22 07:01:12;;;;;;;5.45;3.00;;;;;;;;;;5019995;28;20033;-71
2023/07/22 07:03:37;;;;;;;6.30;4.00;;;;;;;;;;5020415;28;20021;-76
2023/07/22 07:06:02;;;;;;;6.32;4.07;;;;;;;;;;5015324;28;20033;-76
2023/07/22 07:08:28;;;;;;;7.25;4.53;;;;;;;;;;5020780;28;20031;-76
2023/07/22 07:10:53;;;;;;;8.30;4.35;;;;;;;;;;5017370;28;20389;-76
2023/07/22 07:13:19;;;;;;;7.60;4.82;;;;;;;;;;5015278;28;21146;-76
2023/07/22 07:15:50;;;;;;;6.63;3.80;;;;;;;;;;5013737;28;20428;-76
2023/07/22 07:18:17;;;;;;;5.22;3.90;;;;;;;;;;5020638;28;20025;-76
2023/07/22 07:20:42;;;;;;;5.30;3.20;;;;;;;;;;5022962;28;20033;-75
2023/07/22 07:23:07;;;;;;;7.07;4.15;;;;;;;;;;5018215;28;20156;-75
2023/07/22 07:25:33;;;;;;;8.75;4.93;;;;;;;;;;5017320;28;20145;-76
2023/07/22 07:27:58;;;;;;;5.93;3.95;;;;;;;;;;5015981;28;20036;-76
2023/07/22 07:30:24;;;;;;;4.10;2.85;;;;;;;;;;5031696;28;20049;-76
2023/07/22 07:32:49;;;;;;;6.30;4.38;;;;;;;;;;5019974;28;20420;-76
2023/07/22 07:35:14;;;;;;;6.68;3.75;;;;;;;;;;5020445;28;20030;-76
2023/07/22 07:37:40;;;;;;;6.75;4.80;;;;;;;;;;5022412;28;20029;-76
2023/07/22 07:40:06;;;;;;;5.40;4.00;;;;;;;;;;5022958;28;20020;-76
2023/07/22 07:42:31;;;;;;;6.47;4.22;;;;;;;;;;5021236;28;20478;-76
2023/07/22 07:44:57;;;;;;;3.38;2.72;;;;;;;;;;5016938;28;20048;-76
2023/07/22 07:47:22;;;;;;;2.67;2.17;;;;;;;;;;5024518;28;20482;-75
2023/07/22 07:49:48;;;;;;;3.30;2.47;;;;;;;;;;5023506;28;20032;-76
2023/07/22 07:52:15;;;;;;;2.47;2.28;;;;;;;;;;5021450;28;20017;-75
2023/07/22 07:54:41;;;;;;;3.67;2.38;;;;;;;;;;5024197;28;20056;-75
2023/07/22 07:57:06;;;;;;;3.97;2.22;;;;;;;;;;5021353;28;20058;-75
2023/07/22 07:59:31;;;;;;;4.90;2.40;;;;;;;;;;5021605;28;20112;-75
2023/07/22 08:01:57;;;;;;;4.40;2.53;;;;;;;;;;5026669;28;20044;-76
2023/07/22 08:04:23;;;;;;;6.70;2.25;;;;;;;;;;5026436;28;20010;-75
2023/07/22 08:06:49;;;;;;;4.40;2.30;;;;;;;;;;5020360;28;20040;-75
2023/07/22 08:09:18;;;;;;;3.47;2.47;;;;;;;;;;5023250;28;20034;-76
2023/07/22 08:11:44;;;;;;;4.68;2.70;;;;;;;;;;5027159;28;20054;-76
2023/07/22 08:14:10;;;;;;;5.88;3.90;;;;;;;;;;5020030;28;20073;-77
2023/07/22 08:16:35;;;;;;;8.43;5.28;;;;;;;;;;5027554;28;20029;-77
2023/07/22 08:19:01;;;;;;;6.95;2.42;;;;;;;;;;5020853;28;20049;-76
2023/07/22 08:21:26;;;;;;;5.93;3.92;;;;;;;;;;5021682;28;20159;-76
2023/07/22 08:23:52;;;;;;;4.88;3.33;;;;;;;;;;5041267;28;20025;-76
2023/07/22 08:26:20;;;;;;;4.28;3.00;;;;;;;;;;5022241;28;20521;-76
2023/07/22 08:28:46;;;;;;;8.38;5.40;;;;;;;;;;5019785;28;20034;-76
2023/07/22 08:31:12;;;;;;;5.35;3.70;;;;;;;;;;5015913;28;20025;-76
2023/07/22 08:33:37;;;;;;;9.68;4.97;;;;;;;;;;5021322;28;20479;-77
2023/07/22 08:36:03;;;;;;;7.07;4.47;;;;;;;;;;5023962;28;20113;-77
2023/07/22 08:38:28;;;;;;;5.63;4.15;;;;;;;;;;5026814;28;20038;-77
2023/07/22 08:40:54;;;;;;;7.35;4.43;;;;;;;;;;5025716;28;20378;-76
2023/07/22 08:43:21;;;;;;;7.97;5.47;;;;;;;;;;5027576;28;20037;-77
2023/07/22 08:45:48;;;;;;;5.47;3.50;;;;;;;;;;5013646;28;20506;-77
2023/07/22 08:48:18;;;;;;;6.18;3.67;;;;;;;;;;5019800;28;20198;-78
2023/07/22 08:50:52;;;;;;;4.32;2.72;;;;;;;;;;5020643;28;20026;-78
2023/07/22 08:53:21;;;;;;;5.18;3.28;;;;;;;;;;5025233;28;20281;-78
2023/07/22 08:55:49;;;;;;;5.63;3.90;;;;;;;;;;5024727;28;20025;-78
2023/07/22 08:58:16;;;;;;;7.68;5.30;;;;;;;;;;5021625;28;20025;-78
2023/07/22 09:00:43;;;;;;;6.78;4.63;;;;;;;;;;5021562;28;20113;-78
2023/07/22 09:03:09;;;;;;;5.93;3.70;;;;;;;;;;5039317;28;20018;-78
2023/07/22 09:05:35;;;;;;;4.80;3.38;;;;;;;;;;5024059;28;20071;-78
2023/07/22 09:08:03;;;;;;;6.00;3.58;;;;;;;;;;5022896;28;20117;-78
2023/07/22 09:10:28;;;;;;;4.35;3.10;;;;;;;;;;5018636;28;20033;-78
2023/07/22 09:12:54;;;;;;;5.57;3.72;;;;;;;;;;5020497;28;20036;-77
2023/07/22 09:15:20;;;;;;;5.20;3.20;;;;;;;;;;5020057;28;20502;-78
2023/07/22 09:17:46;;;;;;;3.78;3.13;;;;;;;;;;5019464;28;20040;-78
2023/07/22 09:20:14;;;;;;;6.90;4.50;;;;;;;;;;5025951;28;20120;-77
2023/07/22 09:22:43;;;;;;;6.53;4.93;;;;;;;;;;5025953;28;20377;-78
2023/07/22 09:25:16;;;;;;;6.80;4.90;;;;;;;;;;5025698;28;20028;-78
2023/07/22 09:27:43;;;;;;;6.38;4.57;;;;;;;;;;5024299;28;20601;-78
2023/07/22 09:30:31;;;;;;;3.47;2.97;;;;;;;;;;5020543;28;20548;-76
2023/07/22 09:32:58;;;;;;;5.18;4.00;;;;;;;;;;5026313;28;20084;-78
2023/07/22 09:35:41;;;;;;;8.95;3.85;;;;;;;;;;5024656;28;20032;-78
2023/07/22 09:38:07;;;;;;;5.82;4.50;;;;;;;;;;5021527;28;20036;-77
2023/07/22 09:40:32;;;;;;;6.82;5.00;;;;;;;;;;5018130;28;20018;-78
2023/07/22 09:43:05;;;;;;;7.80;4.78;;;;;;;;;;5017808;28;20506;-78
2023/07/22 09:45:31;;;;;;;7.47;4.85;;;;;;;;;;5020579;28;20594;-78
2023/07/22 09:47:58;;;;;;;5.53;4.20;;;;;;;;;;5019383;28;20060;-77
2023/07/22 09:50:25;;;;;;;6.30;4.40;;;;;;;;;;5020857;28;20065;-78
2023/07/22 09:52:57;;;;;;;4.25;3.13;;;;;;;;;;5022531;28;20470;-77
2023/07/22 09:55:25;;;;;;;6.65;3.97;;;;;;;;;;5023266;28;20037;-78
2023/07/22 09:57:53;;;;;;;7.00;4.25;;;;;;;;;;5019913;28;20037;-77
2023/07/22 10:00:22;;;;;;;5.25;4.38;;;;;;;;;;5027234;28;20037;-78
2023/07/22 10:02:49;;;;;;;4.38;3.63;;;;;;;;;;5019741;28;20041;-77
2023/07/22 10:05:17;;;;;;;5.40;4.07;;;;;;;;;;5017536;28;20032;-77
2023/07/22 10:07:47;;;;;;;7.50;5.35;;;;;;;;;;5023798;28;20029;-78
2023/07/22 10:10:15;;;;;;;4.80;4.03;;;;;;;;;;5024092;28;20079;-78
2023/07/22 10:12:42;;;;;;;3.50;2.90;;;;;;;;;;5015364;28;20138;-77
2023/07/22 10:15:09;;;;;;;4.90;3.33;;;;;;;;;;5015574;28;20465;-77
2023/07/22 10:17:35;;;;;;;3.88;3.42;;;;;;;;;;5015667;28;20029;-77
2023/07/22 10:20:05;;;;;;;5.43;4.15;;;;;;;;;;5020939;28;20037;-78
2023/07/22 10:22:30;;;;;;;5.90;4.38;;;;;;;;;;5012340;28;20030;-78
2023/07/22 10:24:57;;;;;;;5.38;4.07;;;;;;;;;;5021630;28;20427;-78
2023/07/22 10:27:23;;;;;;;6.05;3.88;;;;;;;;;;5016973;28;20103;-78
2023/07/22 10:29:49;;;;;;;5.03;3.30;;;;;;;;;;5015996;28;20022;-78
2023/07/22 10:32:15;;;;;;;4.88;3.60;;;;;;;;;;5022225;28;20482;-78
2023/07/22 10:34:41;;;;;;;4.18;3.22;;;;;;;;;;5019392;28;20029;-78
2023/07/22 10:37:10;;;;;;;3.20;2.90;;;;;;;;;;5018640;28;20026;-78
2023/07/22 10:39:36;;;;;;;6.65;4.20;;;;;;;;;;5021767;28;20508;-78
2023/07/22 10:42:05;;;;;;;5.13;3.80;;;;;;;;;;5022135;28;20124;-78
2023/07/22 10:44:33;;;;;;;4.80;3.58;;;;;;;;;;5013510;28;20118;-78
2023/07/22 10:46:58;;;;;;;5.15;4.30;;;;;;;;;;5019826;28;20391;-77
2023/07/22 10:49:27;;;;;;;6.40;4.30;;;;;;;;;;5017804;28;20033;-77
2023/07/22 10:51:53;;;;;;;3.25;2.75;;;;;;;;;;5017049;28;20026;-77
2023/07/22 10:54:36;;;;;;;5.25;4.35;;;;;;;;;;5038736;28;20102;-78
2023/07/22 10:57:16;;;;;;;5.05;3.72;;;;;;;;;;5018155;28;20389;-78
2023/07/22 10:59:52;;;;;;;3.72;2.97;;;;;;;;;;5018616;28;20018;-78
2023/07/22 11:02:25;;;;;;;6.55;4.38;;;;;;;;;;5014641;28;20033;-77
2023/07/22 11:04:51;;;;;;;3.25;2.78;;;;;;;;;;5017507;28;20120;-77
2023/07/22 11:07:34;;;;;;;5.63;4.03;;;;;;;;;;5017472;28;20430;-77
2023/07/22 11:10:18;;;;;;;4.85;3.92;;;;;;;;;;5017435;28;20036;-76
2023/07/22 11:12:45;;;;;;;5.55;3.85;;;;;;;;;;5036860;28;20026;-77
2023/07/22 11:15:10;;;;;;;4.45;3.75;;;;;;;;;;5020680;28;20051;-77
2023/07/22 11:17:37;;;;;;;3.78;3.10;;;;;;;;;;5016722;28;20104;-77
2023/07/22 11:20:03;;;;;;;4.35;3.58;;;;;;;;;;5012543;28;20026;-76
2023/07/22 11:22:29;;;;;;;10.60;4.15;;;;;;;;;;5014817;28;20060;-77
2023/07/22 11:24:55;;;;;;;5.75;3.70;;;;;;;;;;5018142;28;20064;-76
2023/07/22 11:27:22;;;;;;;4.03;3.40;;;;;;;;;;5018371;28;20030;-77
2023/07/22 11:29:48;;;;;;;4.25;3.20;;;;;;;;;;5015446;28;20771;-77
2023/07/22 11:32:19;;;;;;;4.55;3.70;;;;;;;;;;5016016;28;20047;-75
2023/07/22 11:34:44;;;;;;;4.20;3.80;;;;;;;;;;5017541;28;20021;-77
2023/07/22 11:37:10;;;;;;;7.20;3.90;;;;;;;;;;5014541;28;20025;-76
2023/07/22 11:39:36;;;;;;;5.07;3.85;;;;;;;;;;5015407;28;20033;-77
2023/07/22 11:42:03;;;;;;;4.47;3.83;;;;;;;;;;5013581;28;20059;-77
2023/07/22 11:44:30;;;;;;;4.35;3.50;;;;;;;;;;5016264;28;20033;-77
2023/07/22 11:47:07;;;;;;;3.58;3.20;;;;;;;;;;5014135;28;20047;-77
2023/07/22 11:49:36;;;;;;;4.43;3.58;;;;;;;;;;5017793;28;20148;-77
2023/07/22 11:52:07;;;;;;;5.38;3.97;;;;;;;;;;5015971;28;20095;-77
2023/07/22 11:54:35;;;;;;;;;;;;;;;;;;5016897;28;20032;-77
2023/07/22 11:57:16;;;;;;;4.95;3.97;;;;;;;;;;5021020;28;19951;-77
2023/07/22 11:59:47;;;;;;;4.18;3.63;;;;;;;;;;5016505;28;20033;-77
2023/07/22 12:02:19;;;;;;;;;;;;;;;;;;5019985;28;20458;-77
2023/07/22 12:04:58;;;;;;;3.63;2.80;;;;;;;;;;5019934;28;20007;-77
2023/07/22 12:07:24;;;;;;;3.42;3.08;;;;;;;;;;5014839;28;20021;-77
2023/07/22 12:09:51;;;;;;;3.25;2.65;;;;;;;;;;5017189;28;20033;-76
2023/07/22 12:12:17;;;;;;;4.78;3.80;;;;;;;;;;5014793;28;20033;-77
2023/07/22 12:14:42;;;;;;;4.53;3.60;;;;;;;;;;5014435;28;20021;-77
2023/07/22 12:17:11;;;;;;;4.22;2.92;;;;;;;;;;5016385;28;20018;-77
2023/07/22 12:19:36;;;;;;;4.65;3.85;;;;;;;;;;5018334;28;20040;-77
2023/07/22 12:22:02;;;;;;;4.85;3.65;;;;;;;;;;5011758;28;20029;-77
2023/07/22 12:24:28;;;;;;;6.97;4.13;;;;;;;;;;5017105;28;20476;-77
2023/07/22 12:26:54;;;;;;;4.22;3.80;;;;;;;;;;5017953;28;20107;-76
2023/07/22 12:29:19;;;;;;;4.90;3.33;;;;;;;;;;5020042;28;20046;-77
2023/07/22 12:31:45;;;;;;;3.90;3.50;;;;;;;;;;5022354;28;20390;-77
2023/07/22 12:34:10;;;;;;;5.68;3.75;;;;;;;;;;5014982;28;20149;-77
2023/07/22 12:36:36;;;;;;;4.57;3.00;;;;;;;;;;5016527;28;20026;-77
2023/07/22 12:39:01;;;;;;;4.72;3.80;;;;;;;;;;5016876;28;20429;-76
2023/07/22 12:41:27;;;;;;;3.85;2.97;;;;;;;;;;5012438;28;20032;-77
2023/07/22 12:43:52;;;;;;;3.65;3.15;;;;;;;;;;5018188;28;20018;-78
2023/07/22 12:46:18;;;;;;;5.22;3.20;;;;;;;;;;5021788;28;20032;-77
2023/07/22 12:48:43;;;;;;;3.70;2.97;;;;;;;;;;5023982;28;20033;-78
2023/07/22 12:51:09;;;;;;;3.92;3.20;;;;;;;;;;5017429;28;20024;-77
2023/07/22 12:53:35;;;;;;;3.25;2.72;;;;;;;;;;5017710;28;20417;-78
2023/07/22 12:56:03;;;;;;;4.32;3.22;;;;;;;;;;5021646;28;20377;-78
2023/07/22 12:58:29;;;;;;;4.07;3.33;;;;;;;;;;5018707;28;20037;-77
2023/07/22 13:00:55;;;;;;;3.50;2.85;;;;;;;;;;5024918;28;20021;-78
2023/07/22 13:03:20;;;;;;;3.67;2.90;;;;;;;;;;5017998;28;20021;-78
2023/07/22 13:05:46;;;;;;;3.83;3.13;;;;;;;;;;5016520;28;20026;-77
2023/07/22 13:08:11;;;;;;;5.20;3.22;;;;;;;;;;5019886;28;20025;-77
2023/07/22 13:10:39;;;;;;;4.00;3.47;;;;;;;;;;5021807;28;20021;-77
2023/07/22 13:13:05;;;;;;;6.00;3.40;;;;;;;;;;5035444;28;20037;-78
2023/07/22 13:15:31;;;;;;;3.92;3.25;;;;;;;;;;5028282;28;20385;-78
2023/07/22 13:17:56;;;;;;;3.13;2.83;;;;;;;;;;5022237;28;20040;-76
2023/07/22 13:20:22;;;;;;;2.95;2.63;;;;;;;;;;5018281;28;20021;-77
2023/07/22 13:22:48;;;;;;;3.10;2.80;;;;;;;;;;5018661;28;20041;-78
2023/07/22 13:25:13;;;;;;;3.78;2.55;;;;;;;;;;5023747;28;20029;-77
2023/07/22 13:27:40;;;;;;;3.33;3.00;;;;;;;;;;5017417;28;20779;-78
2023/07/22 13:30:07;;;;;;;3.25;2.78;;;;;;;;;;5017149;28;20052;-77
2023/07/22 13:32:32;;;;;;;3.65;2.78;;;;;;;;;;5020790;28;20030;-77
2023/07/22 13:34:58;;;;;;;2.83;2.63;;;;;;;;;;5022207;28;20030;-77
2023/07/22 13:37:23;;;;;;;3.33;2.92;;;;;;;;;;5020792;28;20076;-78
2023/07/22 13:39:49;;;;;;;2.90;2.63;;;;;;;;;;5017480;28;20560;-78
2023/07/22 13:42:14;;;;;;;3.97;2.33;;;;;;;;;;5014835;28;20040;-77
2023/07/22 13:44:39;;;;;;;3.30;2.75;;;;;;;;;;5021195;28;20650;-78
2023/07/22 13:47:05;;;;;;;4.90;3.30;;;;;;;;;;5020575;28;20025;-77
2023/07/22 13:49:30;;;;;;;3.58;3.08;;;;;;;;;;5022349;28;20018;-78
2023/07/22 13:51:55;;;;;;;3.40;2.88;;;;;;;;;;5020224;28;20097;-78
2023/07/22 13:54:21;;;;;;;3.00;2.45;;;;;;;;;;5023587;28;20045;-78
2023/07/22 13:56:47;;;;;;;5.28;2.97;;;;;;;;;;5020071;28;20068;-78
2023/07/22 13:59:13;;;;;;;3.92;3.15;;;;;;;;;;5021716;28;20029;-77
2023/07/22 14:01:39;;;;;;;4.72;2.90;;;;;;;;;;5018742;28;20040;-77
2023/07/22 14:04:04;;;;;;;3.30;3.00;;;;;;;;;;5017495;28;20022;-78
2023/07/22 14:06:29;;;;;;;2.95;2.60;;;;;;;;;;5021176;28;20044;-79
2023/07/22 14:08:55;;;;;;;3.60;3.22;;;;;;;;;;5019359;28;20052;-77
2023/07/22 14:11:20;;;;;;;3.42;2.85;;;;;;;;;;5018949;28;20053;-78
2023/07/22 14:13:46;;;;;;;3.13;2.78;;;;;;;;;;5022142;28;20026;-78
2023/07/22 14:16:11;;;;;;;3.33;2.90;;;;;;;;;;5021421;28;20095;-77
2023/07/22 14:18:37;;;;;;;4.13;3.03;;;;;;;;;;5019156;28;20117;-76
2023/07/22 14:21:02;;;;;;;4.28;3.38;;;;;;;;;;5018723;28;20041;-79
2023/07/22 14:23:28;;;;;;;2.85;2.50;;;;;;;;;;5020044;28;20446;-77
2023/07/22 14:25:53;;;;;;;4.18;2.60;;;;;;;;;;5018558;28;20034;-77
2023/07/22 14:28:19;;;;;;;3.30;2.65;;;;;;;;;;5019137;28;20136;-78
2023/07/22 14:30:44;;;;;;;3.03;2.50;;;;;;;;;;5016314;28;20048;-78
2023/07/22 14:33:10;;;;;;;3.67;3.08;;;;;;;;;;5020386;28;20037;-77
2023/07/22 14:35:36;;;;;;;4.80;3.28;;;;;;;;;;5016726;28;20771;-79
2023/07/22 14:38:01;;;;;;;3.88;3.08;;;;;;;;;;5015936;28;20083;-78